sensor_id;sensor_type;location;lat;lon;timestamp;P1;durP1;ratioP1;P2;durP2;ratioP2
79365;SDS011;68833;53.160;17.920;2024-03-02T00:00:28;47.40;;;26.30;;
79365;SDS011;68833;53.160;17.920;2024-03-02T00:03:15;58.00;;;30.70;;
79365;SDS011;68833;53.160;17.920;2024-03-02T00:05:42;59.70;;;31.20;;
79365;SDS011;68833;53.160;17.920;2024-03-02T00:08:09;59.10;;;30.00;;
79365;SDS011;68833;53.160;17.920;2024-03-02T00:10:39;55.80;;;32.10;;
79365;SDS011;68833;53.160;17.920;2024-03-02T00:13:07;67.00;;;33.00;;
79365;SDS011;68833;53.160;17.920;2024-03-02T00:15:48;58.70;;;32.60;;
79365;SDS011;68833;53.160;17.920;2024-03-02T00:18:19;54.20;;;29.40;;
79365;SDS011;68833;53.160;17.920;2024-03-02T00:20:47;54.30;;;29.20;;
79365;SDS011;68833;53.160;17.920;2024-03-02T00:23:15;54.10;;;30.00;;
79365;SDS011;68833;53.160;17.920;2024-03-02T00:25:47;57.40;;;30.20;;
79365;SDS011;68833;53.160;17.920;2024-03-02T00:33:21;56.00;;;30.90;;
79365;SDS011;68833;53.160;17.920;2024-03-02T00:35:49;60.30;;;32.20;;
79365;SDS011;68833;53.160;17.920;2024-03-02T00:38:17;61.80;;;31.80;;
79365;SDS011;68833;53.160;17.920;2024-03-02T00:40:44;58.40;;;31.70;;
79365;SDS011;68833;53.160;17.920;2024-03-02T00:46:18;65.10;;;33.50;;
79365;SDS011;68833;53.160;17.920;2024-03-02T00:48:55;48.70;;;27.60;;
79365;SDS011;68833;53.160;17.920;2024-03-02T00:51:26;54.40;;;27.90;;
79365;SDS011;68833;53.160;17.920;2024-03-02T00:53:57;58.50;;;30.50;;
79365;SDS011;68833;53.160;17.920;2024-03-02T00:56:26;57.40;;;31.70;;
79365;SDS011;68833;53.160;17.920;2024-03-02T00:58:53;58.40;;;31.70;;
79365;SDS011;68833;53.160;17.920;2024-03-02T01:04:35;58.80;;;30.40;;
79365;SDS011;68833;53.160;17.920;2024-03-02T01:07:38;51.30;;;29.00;;
79365;SDS011;68833;53.160;17.920;2024-03-02T01:10:42;58.50;;;31.30;;
79365;SDS011;68833;53.160;17.920;2024-03-02T01:13:45;52.50;;;30.10;;
79365;SDS011;68833;53.160;17.920;2024-03-02T01:17:07;56.70;;;32.10;;
79365;SDS011;68833;53.160;17.920;2024-03-02T01:20:29;49.50;;;26.40;;
79365;SDS011;68833;53.160;17.920;2024-03-02T01:23:52;46.30;;;24.70;;
79365;SDS011;68833;53.160;17.920;2024-03-02T01:27:14;54.80;;;30.00;;
79365;SDS011;68833;53.160;17.920;2024-03-02T01:30:36;54.80;;;31.30;;
79365;SDS011;68833;53.160;17.920;2024-03-02T01:33:59;56.90;;;30.20;;
79365;SDS011;68833;53.160;17.920;2024-03-02T01:37:22;53.50;;;28.50;;
79365;SDS011;68833;53.160;17.920;2024-03-02T01:40:44;53.80;;;27.40;;
79365;SDS011;68833;53.160;17.920;2024-03-02T01:44:06;60.00;;;31.90;;
79365;SDS011;68833;53.160;17.920;2024-03-02T01:47:28;55.70;;;29.20;;
79365;SDS011;68833;53.160;17.920;2024-03-02T01:50:51;54.30;;;28.40;;
79365;SDS011;68833;53.160;17.920;2024-03-02T01:54:13;54.10;;;28.20;;
79365;SDS011;68833;53.160;17.920;2024-03-02T01:57:35;55.60;;;30.00;;
79365;SDS011;68833;53.160;17.920;2024-03-02T02:00:58;54.70;;;31.10;;
79365;SDS011;68833;53.160;17.920;2024-03-02T02:12:38;53.30;;;28.30;;
79365;SDS011;68833;53.160;17.920;2024-03-02T02:15:24;54.40;;;29.40;;
79365;SDS011;68833;53.160;17.920;2024-03-02T02:17:51;54.40;;;28.30;;
79365;SDS011;68833;53.160;17.920;2024-03-02T02:20:18;53.30;;;28.80;;
79365;SDS011;68833;53.160;17.920;2024-03-02T02:22:58;57.60;;;31.10;;
79365;SDS011;68833;53.160;17.920;2024-03-02T02:25:25;59.90;;;31.60;;
79365;SDS011;68833;53.160;17.920;2024-03-02T02:27:53;54.50;;;31.00;;
79365;SDS011;68833;53.160;17.920;2024-03-02T02:30:24;53.90;;;30.30;;
79365;SDS011;68833;53.160;17.920;2024-03-02T02:32:53;51.60;;;26.40;;
79365;SDS011;68833;53.160;17.920;2024-03-02T02:35:20;46.90;;;27.00;;
79365;SDS011;68833;53.160;17.920;2024-03-02T02:38:03;52.70;;;27.60;;
79365;SDS011;68833;53.160;17.920;2024-03-02T02:40:36;51.30;;;29.20;;
79365;SDS011;68833;53.160;17.920;2024-03-02T02:43:03;51.50;;;28.70;;
79365;SDS011;68833;53.160;17.920;2024-03-02T02:45:30;55.50;;;29.20;;
79365;SDS011;68833;53.160;17.920;2024-03-02T02:47:57;43.60;;;25.40;;
79365;SDS011;68833;53.160;17.920;2024-03-02T02:50:24;51.50;;;26.10;;
79365;SDS011;68833;53.160;17.920;2024-03-02T02:52:51;47.50;;;27.10;;
79365;SDS011;68833;53.160;17.920;2024-03-02T02:55:18;52.00;;;28.10;;
79365;SDS011;68833;53.160;17.920;2024-03-02T02:57:45;49.40;;;27.40;;
79365;SDS011;68833;53.160;17.920;2024-03-02T03:00:15;51.90;;;28.30;;
79365;SDS011;68833;53.160;17.920;2024-03-02T03:05:14;44.70;;;25.80;;
79365;SDS011;68833;53.160;17.920;2024-03-02T03:07:42;45.90;;;24.80;;
79365;SDS011;68833;53.160;17.920;2024-03-02T03:10:10;51.80;;;27.80;;
79365;SDS011;68833;53.160;17.920;2024-03-02T03:12:37;49.20;;;27.60;;
79365;SDS011;68833;53.160;17.920;2024-03-02T03:15:05;43.00;;;23.80;;
79365;SDS011;68833;53.160;17.920;2024-03-02T03:17:33;52.90;;;28.60;;
79365;SDS011;68833;53.160;17.920;2024-03-02T03:20:01;45.20;;;24.40;;
79365;SDS011;68833;53.160;17.920;2024-03-02T03:22:32;39.90;;;22.40;;
79365;SDS011;68833;53.160;17.920;2024-03-02T03:25:01;40.70;;;24.10;;
79365;SDS011;68833;53.160;17.920;2024-03-02T03:27:30;53.60;;;27.20;;
79365;SDS011;68833;53.160;17.920;2024-03-02T03:32:27;42.50;;;23.90;;
79365;SDS011;68833;53.160;17.920;2024-03-02T03:34:54;45.70;;;25.50;;
79365;SDS011;68833;53.160;17.920;2024-03-02T03:37:20;43.00;;;23.20;;
79365;SDS011;68833;53.160;17.920;2024-03-02T03:39:47;41.10;;;23.30;;
79365;SDS011;68833;53.160;17.920;2024-03-02T03:42:14;37.10;;;21.70;;
79365;SDS011;68833;53.160;17.920;2024-03-02T03:44:53;48.60;;;26.30;;
79365;SDS011;68833;53.160;17.920;2024-03-02T03:47:22;43.00;;;23.20;;
79365;SDS011;68833;53.160;17.920;2024-03-02T03:49:49;38.30;;;23.00;;
79365;SDS011;68833;53.160;17.920;2024-03-02T03:52:16;35.20;;;21.40;;
79365;SDS011;68833;53.160;17.920;2024-03-02T03:54:43;32.00;;;18.70;;
79365;SDS011;68833;53.160;17.920;2024-03-02T03:57:13;30.20;;;18.90;;
79365;SDS011;68833;53.160;17.920;2024-03-02T03:59:43;28.00;;;17.10;;
79365;SDS011;68833;53.160;17.920;2024-03-02T04:02:14;32.30;;;18.50;;
79365;SDS011;68833;53.160;17.920;2024-03-02T04:04:41;37.00;;;21.30;;
79365;SDS011;68833;53.160;17.920;2024-03-02T04:07:08;36.60;;;21.50;;
79365;SDS011;68833;53.160;17.920;2024-03-02T04:09:35;34.20;;;19.90;;
79365;SDS011;68833;53.160;17.920;2024-03-02T04:12:03;34.90;;;20.10;;
79365;SDS011;68833;53.160;17.920;2024-03-02T04:14:32;33.70;;;19.20;;
79365;SDS011;68833;53.160;17.920;2024-03-02T04:16:59;28.10;;;18.40;;
79365;SDS011;68833;53.160;17.920;2024-03-02T04:19:26;31.90;;;17.30;;
79365;SDS011;68833;53.160;17.920;2024-03-02T04:22:03;34.60;;;21.10;;
79365;SDS011;68833;53.160;17.920;2024-03-02T04:24:30;32.70;;;20.70;;
79365;SDS011;68833;53.160;17.920;2024-03-02T04:26:57;35.90;;;20.80;;
79365;SDS011;68833;53.160;17.920;2024-03-02T04:29:25;33.80;;;20.10;;
79365;SDS011;68833;53.160;17.920;2024-03-02T04:31:51;36.40;;;22.20;;
79365;SDS011;68833;53.160;17.920;2024-03-02T04:36:49;32.30;;;19.80;;
79365;SDS011;68833;53.160;17.920;2024-03-02T04:39:16;93.60;;;43.20;;
79365;SDS011;68833;53.160;17.920;2024-03-02T04:41:52;39.10;;;21.60;;
79365;SDS011;68833;53.160;17.920;2024-03-02T04:44:28;39.00;;;25.90;;
79365;SDS011;68833;53.160;17.920;2024-03-02T04:46:55;41.20;;;26.90;;
79365;SDS011;68833;53.160;17.920;2024-03-02T04:49:25;34.70;;;20.00;;
79365;SDS011;68833;53.160;17.920;2024-03-02T04:51:53;33.70;;;19.20;;
79365;SDS011;68833;53.160;17.920;2024-03-02T04:54:23;30.50;;;19.60;;
79365;SDS011;68833;53.160;17.920;2024-03-02T04:56:50;24.50;;;16.70;;
79365;SDS011;68833;53.160;17.920;2024-03-02T04:59:17;33.60;;;18.30;;
79365;SDS011;68833;53.160;17.920;2024-03-02T05:01:45;57.60;;;27.80;;
79365;SDS011;68833;53.160;17.920;2024-03-02T05:04:18;43.10;;;23.10;;
79365;SDS011;68833;53.160;17.920;2024-03-02T05:06:48;40.50;;;21.70;;
79365;SDS011;68833;53.160;17.920;2024-03-02T05:09:39;56.70;;;28.30;;
79365;SDS011;68833;53.160;17.920;2024-03-02T05:12:09;38.20;;;23.40;;
79365;SDS011;68833;53.160;17.920;2024-03-02T05:14:56;35.70;;;19.40;;
79365;SDS011;68833;53.160;17.920;2024-03-02T05:17:23;33.40;;;18.60;;
79365;SDS011;68833;53.160;17.920;2024-03-02T05:19:53;35.00;;;18.80;;
79365;SDS011;68833;53.160;17.920;2024-03-02T05:22:20;56.00;;;28.90;;
79365;SDS011;68833;53.160;17.920;2024-03-02T05:24:50;36.00;;;20.90;;
79365;SDS011;68833;53.160;17.920;2024-03-02T05:27:20;71.80;;;31.20;;
79365;SDS011;68833;53.160;17.920;2024-03-02T05:29:53;42.80;;;21.20;;
79365;SDS011;68833;53.160;17.920;2024-03-02T05:32:22;41.90;;;20.40;;
79365;SDS011;68833;53.160;17.920;2024-03-02T05:34:49;35.40;;;19.00;;
79365;SDS011;68833;53.160;17.920;2024-03-02T05:37:17;41.00;;;22.90;;
79365;SDS011;68833;53.160;17.920;2024-03-02T05:39:44;37.50;;;21.50;;
79365;SDS011;68833;53.160;17.920;2024-03-02T05:42:17;37.60;;;22.40;;
79365;SDS011;68833;53.160;17.920;2024-03-02T05:44:48;39.40;;;22.50;;
79365;SDS011;68833;53.160;17.920;2024-03-02T05:47:18;46.10;;;23.50;;
79365;SDS011;68833;53.160;17.920;2024-03-02T05:49:50;53.60;;;23.20;;
79365;SDS011;68833;53.160;17.920;2024-03-02T05:52:17;43.00;;;22.90;;
79365;SDS011;68833;53.160;17.920;2024-03-02T05:54:47;53.10;;;24.80;;
79365;SDS011;68833;53.160;17.920;2024-03-02T05:57:19;51.50;;;24.80;;
79365;SDS011;68833;53.160;17.920;2024-03-02T06:00:09;45.20;;;23.20;;
79365;SDS011;68833;53.160;17.920;2024-03-02T06:02:40;37.50;;;20.70;;
79365;SDS011;68833;53.160;17.920;2024-03-02T06:05:08;32.90;;;19.90;;
79365;SDS011;68833;53.160;17.920;2024-03-02T06:07:35;43.30;;;23.50;;
79365;SDS011;68833;53.160;17.920;2024-03-02T06:10:02;76.80;;;30.40;;
79365;SDS011;68833;53.160;17.920;2024-03-02T06:12:30;37.50;;;23.80;;
79365;SDS011;68833;53.160;17.920;2024-03-02T06:15:02;40.10;;;21.40;;
79365;SDS011;68833;53.160;17.920;2024-03-02T06:17:30;36.20;;;21.70;;
79365;SDS011;68833;53.160;17.920;2024-03-02T06:19:57;41.10;;;23.40;;
79365;SDS011;68833;53.160;17.920;2024-03-02T06:22:31;35.10;;;22.60;;
79365;SDS011;68833;53.160;17.920;2024-03-02T06:25:02;77.40;;;36.00;;
79365;SDS011;68833;53.160;17.920;2024-03-02T06:27:32;37.40;;;21.70;;
79365;SDS011;68833;53.160;17.920;2024-03-02T06:30:04;51.80;;;27.20;;
79365;SDS011;68833;53.160;17.920;2024-03-02T06:35:04;50.40;;;24.10;;
79365;SDS011;68833;53.160;17.920;2024-03-02T06:37:32;39.90;;;22.30;;
79365;SDS011;68833;53.160;17.920;2024-03-02T06:40:00;38.00;;;21.50;;
79365;SDS011;68833;53.160;17.920;2024-03-02T06:42:27;34.70;;;20.70;;
79365;SDS011;68833;53.160;17.920;2024-03-02T06:44:55;38.20;;;24.10;;
79365;SDS011;68833;53.160;17.920;2024-03-02T06:47:35;38.70;;;22.90;;
79365;SDS011;68833;53.160;17.920;2024-03-02T06:50:02;34.10;;;21.00;;
79365;SDS011;68833;53.160;17.920;2024-03-02T06:52:30;38.80;;;24.20;;
79365;SDS011;68833;53.160;17.920;2024-03-02T06:54:58;44.00;;;24.40;;
79365;SDS011;68833;53.160;17.920;2024-03-02T06:57:25;47.60;;;25.10;;
79365;SDS011;68833;53.160;17.920;2024-03-02T06:59:52;34.40;;;20.60;;
79365;SDS011;68833;53.160;17.920;2024-03-02T07:02:21;37.90;;;21.90;;
79365;SDS011;68833;53.160;17.920;2024-03-02T07:04:53;28.00;;;18.80;;
79365;SDS011;68833;53.160;17.920;2024-03-02T07:07:21;41.30;;;23.40;;
79365;SDS011;68833;53.160;17.920;2024-03-02T07:09:51;46.00;;;25.20;;
79365;SDS011;68833;53.160;17.920;2024-03-02T07:12:20;40.50;;;22.60;;
79365;SDS011;68833;53.160;17.920;2024-03-02T07:14:47;35.80;;;21.00;;
79365;SDS011;68833;53.160;17.920;2024-03-02T07:17:40;42.80;;;21.50;;
79365;SDS011;68833;53.160;17.920;2024-03-02T07:20:07;44.40;;;21.70;;
79365;SDS011;68833;53.160;17.920;2024-03-02T07:22:35;33.70;;;20.90;;
79365;SDS011;68833;53.160;17.920;2024-03-02T07:25:04;53.10;;;25.40;;
79365;SDS011;68833;53.160;17.920;2024-03-02T07:27:34;47.90;;;24.40;;
79365;SDS011;68833;53.160;17.920;2024-03-02T07:30:02;57.30;;;27.70;;
79365;SDS011;68833;53.160;17.920;2024-03-02T07:32:30;48.10;;;23.20;;
79365;SDS011;68833;53.160;17.920;2024-03-02T07:34:57;50.70;;;28.60;;
79365;SDS011;68833;53.160;17.920;2024-03-02T07:37:24;48.30;;;25.40;;
79365;SDS011;68833;53.160;17.920;2024-03-02T07:39:51;72.70;;;32.90;;
79365;SDS011;68833;53.160;17.920;2024-03-02T07:42:18;56.80;;;28.40;;
79365;SDS011;68833;53.160;17.920;2024-03-02T07:44:45;56.70;;;27.30;;
79365;SDS011;68833;53.160;17.920;2024-03-02T07:47:12;41.00;;;24.40;;
79365;SDS011;68833;53.160;17.920;2024-03-02T07:49:39;34.00;;;21.20;;
79365;SDS011;68833;53.160;17.920;2024-03-02T07:52:08;39.80;;;22.20;;
79365;SDS011;68833;53.160;17.920;2024-03-02T07:54:35;42.70;;;24.00;;
79365;SDS011;68833;53.160;17.920;2024-03-02T07:57:05;39.70;;;25.50;;
79365;SDS011;68833;53.160;17.920;2024-03-02T07:59:34;36.60;;;21.20;;
79365;SDS011;68833;53.160;17.920;2024-03-02T08:02:01;36.40;;;20.70;;
79365;SDS011;68833;53.160;17.920;2024-03-02T08:04:31;33.30;;;19.60;;
79365;SDS011;68833;53.160;17.920;2024-03-02T08:06:58;34.40;;;20.50;;
79365;SDS011;68833;53.160;17.920;2024-03-02T08:09:26;34.10;;;21.40;;
79365;SDS011;68833;53.160;17.920;2024-03-02T08:11:57;36.30;;;23.10;;
79365;SDS011;68833;53.160;17.920;2024-03-02T08:14:27;35.20;;;23.80;;
79365;SDS011;68833;53.160;17.920;2024-03-02T08:16:56;35.40;;;22.90;;
79365;SDS011;68833;53.160;17.920;2024-03-02T08:19:26;29.60;;;19.50;;
79365;SDS011;68833;53.160;17.920;2024-03-02T08:21:53;31.80;;;18.80;;
79365;SDS011;68833;53.160;17.920;2024-03-02T08:24:26;31.30;;;19.50;;
79365;SDS011;68833;53.160;17.920;2024-03-02T08:27:20;32.30;;;21.60;;
79365;SDS011;68833;53.160;17.920;2024-03-02T08:29:48;38.10;;;23.70;;
79365;SDS011;68833;53.160;17.920;2024-03-02T08:32:15;38.70;;;23.20;;
79365;SDS011;68833;53.160;17.920;2024-03-02T08:34:44;34.60;;;21.50;;
79365;SDS011;68833;53.160;17.920;2024-03-02T08:37:14;34.70;;;21.40;;
79365;SDS011;68833;53.160;17.920;2024-03-02T08:39:42;33.20;;;20.70;;
79365;SDS011;68833;53.160;17.920;2024-03-02T08:42:10;27.90;;;17.30;;
79365;SDS011;68833;53.160;17.920;2024-03-02T08:44:37;34.60;;;22.10;;
79365;SDS011;68833;53.160;17.920;2024-03-02T08:47:06;36.70;;;22.70;;
79365;SDS011;68833;53.160;17.920;2024-03-02T08:49:35;39.10;;;24.30;;
79365;SDS011;68833;53.160;17.920;2024-03-02T08:52:03;35.50;;;20.80;;
79365;SDS011;68833;53.160;17.920;2024-03-02T08:54:31;30.20;;;18.70;;
79365;SDS011;68833;53.160;17.920;2024-03-02T08:57:00;31.30;;;20.30;;
79365;SDS011;68833;53.160;17.920;2024-03-02T08:59:28;41.30;;;21.90;;
79365;SDS011;68833;53.160;17.920;2024-03-02T09:01:55;52.30;;;25.00;;
79365;SDS011;68833;53.160;17.920;2024-03-02T09:04:23;47.10;;;24.60;;
79365;SDS011;68833;53.160;17.920;2024-03-02T09:06:50;38.90;;;23.70;;
79365;SDS011;68833;53.160;17.920;2024-03-02T09:09:17;34.90;;;21.60;;
79365;SDS011;68833;53.160;17.920;2024-03-02T09:11:45;42.30;;;22.90;;
79365;SDS011;68833;53.160;17.920;2024-03-02T09:14:13;34.40;;;20.60;;
79365;SDS011;68833;53.160;17.920;2024-03-02T09:16:42;36.30;;;24.20;;
79365;SDS011;68833;53.160;17.920;2024-03-02T09:19:09;35.10;;;23.70;;
79365;SDS011;68833;53.160;17.920;2024-03-02T09:21:37;35.50;;;19.80;;
79365;SDS011;68833;53.160;17.920;2024-03-02T09:24:04;32.90;;;21.20;;
79365;SDS011;68833;53.160;17.920;2024-03-02T09:29:03;33.60;;;19.20;;
79365;SDS011;68833;53.160;17.920;2024-03-02T09:31:30;29.10;;;17.30;;
79365;SDS011;68833;53.160;17.920;2024-03-02T09:33:58;30.70;;;19.60;;
79365;SDS011;68833;53.160;17.920;2024-03-02T09:36:25;33.00;;;21.00;;
79365;SDS011;68833;53.160;17.920;2024-03-02T09:38:52;41.10;;;25.70;;
79365;SDS011;68833;53.160;17.920;2024-03-02T09:41:19;31.40;;;19.50;;
79365;SDS011;68833;53.160;17.920;2024-03-02T09:43:50;31.20;;;19.00;;
79365;SDS011;68833;53.160;17.920;2024-03-02T09:46:18;35.10;;;19.80;;
79365;SDS011;68833;53.160;17.920;2024-03-02T09:48:47;30.90;;;19.40;;
79365;SDS011;68833;53.160;17.920;2024-03-02T09:51:16;30.00;;;18.30;;
79365;SDS011;68833;53.160;17.920;2024-03-02T09:53:46;35.30;;;21.50;;
79365;SDS011;68833;53.160;17.920;2024-03-02T09:56:15;33.50;;;21.20;;
79365;SDS011;68833;53.160;17.920;2024-03-02T09:58:43;36.90;;;20.80;;
79365;SDS011;68833;53.160;17.920;2024-03-02T10:01:12;31.50;;;18.30;;
79365;SDS011;68833;53.160;17.920;2024-03-02T10:03:40;27.70;;;18.00;;
79365;SDS011;68833;53.160;17.920;2024-03-02T10:06:22;27.40;;;17.60;;
79365;SDS011;68833;53.160;17.920;2024-03-02T10:08:51;34.90;;;19.70;;
79365;SDS011;68833;53.160;17.920;2024-03-02T10:11:29;34.10;;;22.40;;
79365;SDS011;68833;53.160;17.920;2024-03-02T10:14:07;24.50;;;16.20;;
79365;SDS011;68833;53.160;17.920;2024-03-02T10:16:42;28.80;;;17.90;;
79365;SDS011;68833;53.160;17.920;2024-03-02T10:19:20;24.90;;;16.80;;
79365;SDS011;68833;53.160;17.920;2024-03-02T10:21:52;20.70;;;12.80;;
79365;SDS011;68833;53.160;17.920;2024-03-02T10:24:21;28.30;;;18.90;;
79365;SDS011;68833;53.160;17.920;2024-03-02T10:26:49;28.50;;;18.30;;
79365;SDS011;68833;53.160;17.920;2024-03-02T10:29:17;26.40;;;16.60;;
79365;SDS011;68833;53.160;17.920;2024-03-02T10:31:45;22.40;;;16.00;;
79365;SDS011;68833;53.160;17.920;2024-03-02T10:34:13;23.40;;;17.00;;
79365;SDS011;68833;53.160;17.920;2024-03-02T10:36:43;25.50;;;16.10;;
79365;SDS011;68833;53.160;17.920;2024-03-02T10:39:13;29.00;;;16.10;;
79365;SDS011;68833;53.160;17.920;2024-03-02T10:41:41;28.10;;;17.80;;
79365;SDS011;68833;53.160;17.920;2024-03-02T10:44:09;31.00;;;19.40;;
79365;SDS011;68833;53.160;17.920;2024-03-02T10:46:36;28.10;;;17.40;;
79365;SDS011;68833;53.160;17.920;2024-03-02T10:49:04;28.30;;;17.70;;
79365;SDS011;68833;53.160;17.920;2024-03-02T10:51:33;25.90;;;17.00;;
79365;SDS011;68833;53.160;17.920;2024-03-02T10:54:02;24.00;;;15.10;;
79365;SDS011;68833;53.160;17.920;2024-03-02T10:56:31;27.10;;;17.10;;
79365;SDS011;68833;53.160;17.920;2024-03-02T10:59:16;25.10;;;15.40;;
79365;SDS011;68833;53.160;17.920;2024-03-02T11:03:37;24.40;;;16.60;;
79365;SDS011;68833;53.160;17.920;2024-03-02T11:06:07;35.30;;;23.00;;
79365;SDS011;68833;53.160;17.920;2024-03-02T11:11:06;24.80;;;17.00;;
79365;SDS011;68833;53.160;17.920;2024-03-02T11:13:38;25.20;;;17.60;;
79365;SDS011;68833;53.160;17.920;2024-03-02T11:16:16;26.00;;;16.20;;
79365;SDS011;68833;53.160;17.920;2024-03-02T11:18:53;27.70;;;17.30;;
79365;SDS011;68833;53.160;17.920;2024-03-02T11:21:21;26.70;;;15.80;;
79365;SDS011;68833;53.160;17.920;2024-03-02T11:23:49;27.10;;;16.30;;
79365;SDS011;68833;53.160;17.920;2024-03-02T11:26:20;24.30;;;16.40;;
79365;SDS011;68833;53.160;17.920;2024-03-02T11:28:48;29.20;;;18.70;;
79365;SDS011;68833;53.160;17.920;2024-03-02T11:31:15;29.50;;;19.10;;
79365;SDS011;68833;53.160;17.920;2024-03-02T11:33:42;32.30;;;19.40;;
79365;SDS011;68833;53.160;17.920;2024-03-02T11:36:09;28.40;;;17.70;;
79365;SDS011;68833;53.160;17.920;2024-03-02T11:38:36;25.90;;;16.50;;
79365;SDS011;68833;53.160;17.920;2024-03-02T11:41:05;25.50;;;16.30;;
79365;SDS011;68833;53.160;17.920;2024-03-02T11:43:39;24.00;;;17.40;;
79365;SDS011;68833;53.160;17.920;2024-03-02T11:46:07;28.20;;;17.20;;
79365;SDS011;68833;53.160;17.920;2024-03-02T11:48:34;26.80;;;16.50;;
79365;SDS011;68833;53.160;17.920;2024-03-02T11:51:03;27.10;;;18.00;;
79365;SDS011;68833;53.160;17.920;2024-03-02T11:53:30;32.10;;;19.10;;
79365;SDS011;68833;53.160;17.920;2024-03-02T11:56:01;29.10;;;18.30;;
79365;SDS011;68833;53.160;17.920;2024-03-02T11:58:28;24.80;;;16.10;;
79365;SDS011;68833;53.160;17.920;2024-03-02T12:00:56;30.20;;;17.90;;
79365;SDS011;68833;53.160;17.920;2024-03-02T12:03:24;26.90;;;18.30;;
79365;SDS011;68833;53.160;17.920;2024-03-02T12:05:52;28.10;;;18.40;;
79365;SDS011;68833;53.160;17.920;2024-03-02T12:08:20;25.90;;;16.90;;
79365;SDS011;68833;53.160;17.920;2024-03-02T12:10:58;23.90;;;15.00;;
79365;SDS011;68833;53.160;17.920;2024-03-02T12:13:27;31.40;;;20.30;;
79365;SDS011;68833;53.160;17.920;2024-03-02T12:15:54;30.80;;;19.90;;
79365;SDS011;68833;53.160;17.920;2024-03-02T12:18:24;27.60;;;17.80;;
79365;SDS011;68833;53.160;17.920;2024-03-02T12:20:52;28.10;;;16.40;;
79365;SDS011;68833;53.160;17.920;2024-03-02T12:23:19;26.60;;;17.60;;
79365;SDS011;68833;53.160;17.920;2024-03-02T12:25:46;28.30;;;18.50;;
79365;SDS011;68833;53.160;17.920;2024-03-02T12:28:13;25.20;;;15.80;;
79365;SDS011;68833;53.160;17.920;2024-03-02T12:30:40;25.80;;;17.60;;
79365;SDS011;68833;53.160;17.920;2024-03-02T12:35:37;32.60;;;19.50;;
79365;SDS011;68833;53.160;17.920;2024-03-02T12:38:04;31.60;;;20.50;;
79365;SDS011;68833;53.160;17.920;2024-03-02T12:40:32;29.60;;;19.00;;
79365;SDS011;68833;53.160;17.920;2024-03-02T12:42:58;29.50;;;18.80;;
79365;SDS011;68833;53.160;17.920;2024-03-02T12:45:25;31.80;;;18.70;;
79365;SDS011;68833;53.160;17.920;2024-03-02T12:47:53;24.30;;;16.00;;
79365;SDS011;68833;53.160;17.920;2024-03-02T12:50:20;41.10;;;24.50;;
79365;SDS011;68833;53.160;17.920;2024-03-02T12:52:54;49.20;;;23.50;;
79365;SDS011;68833;53.160;17.920;2024-03-02T12:55:22;27.40;;;16.80;;
79365;SDS011;68833;53.160;17.920;2024-03-02T12:57:50;27.40;;;17.50;;
79365;SDS011;68833;53.160;17.920;2024-03-02T13:00:19;27.90;;;18.20;;
79365;SDS011;68833;53.160;17.920;2024-03-02T13:02:47;26.00;;;18.20;;
79365;SDS011;68833;53.160;17.920;2024-03-02T13:05:15;28.30;;;16.60;;
79365;SDS011;68833;53.160;17.920;2024-03-02T13:07:42;26.30;;;16.20;;
79365;SDS011;68833;53.160;17.920;2024-03-02T13:10:09;28.20;;;18.10;;
79365;SDS011;68833;53.160;17.920;2024-03-02T13:12:36;33.90;;;20.20;;
79365;SDS011;68833;53.160;17.920;2024-03-02T13:15:04;29.70;;;18.20;;
79365;SDS011;68833;53.160;17.920;2024-03-02T13:17:34;25.10;;;16.50;;
79365;SDS011;68833;53.160;17.920;2024-03-02T13:20:02;31.60;;;19.30;;
79365;SDS011;68833;53.160;17.920;2024-03-02T13:22:31;30.80;;;19.10;;
79365;SDS011;68833;53.160;17.920;2024-03-02T13:24:58;34.80;;;21.00;;
79365;SDS011;68833;53.160;17.920;2024-03-02T13:27:28;30.20;;;18.50;;
79365;SDS011;68833;53.160;17.920;2024-03-02T13:29:56;27.00;;;18.40;;
79365;SDS011;68833;53.160;17.920;2024-03-02T13:32:23;26.60;;;17.20;;
79365;SDS011;68833;53.160;17.920;2024-03-02T13:34:50;24.80;;;14.80;;
79365;SDS011;68833;53.160;17.920;2024-03-02T13:37:17;27.40;;;16.80;;
79365;SDS011;68833;53.160;17.920;2024-03-02T13:39:44;27.00;;;17.40;;
79365;SDS011;68833;53.160;17.920;2024-03-02T13:42:11;35.00;;;21.00;;
79365;SDS011;68833;53.160;17.920;2024-03-02T13:44:43;28.50;;;18.60;;
79365;SDS011;68833;53.160;17.920;2024-03-02T13:47:13;25.80;;;17.60;;
79365;SDS011;68833;53.160;17.920;2024-03-02T13:49:41;27.50;;;18.10;;
79365;SDS011;68833;53.160;17.920;2024-03-02T13:52:12;29.20;;;18.20;;
79365;SDS011;68833;53.160;17.920;2024-03-02T13:54:44;28.90;;;19.40;;
79365;SDS011;68833;53.160;17.920;2024-03-02T13:57:12;26.40;;;17.70;;
79365;SDS011;68833;53.160;17.920;2024-03-02T13:59:40;34.00;;;21.40;;
79365;SDS011;68833;53.160;17.920;2024-03-02T14:02:08;32.50;;;20.10;;
79365;SDS011;68833;53.160;17.920;2024-03-02T14:04:36;32.70;;;21.10;;
79365;SDS011;68833;53.160;17.920;2024-03-02T14:07:03;33.70;;;20.30;;
79365;SDS011;68833;53.160;17.920;2024-03-02T14:09:33;31.40;;;18.70;;
79365;SDS011;68833;53.160;17.920;2024-03-02T14:12:00;32.60;;;19.90;;
79365;SDS011;68833;53.160;17.920;2024-03-02T14:14:27;38.10;;;23.30;;
79365;SDS011;68833;53.160;17.920;2024-03-02T14:16:54;38.30;;;23.30;;
79365;SDS011;68833;53.160;17.920;2024-03-02T14:19:22;42.50;;;24.40;;
79365;SDS011;68833;53.160;17.920;2024-03-02T14:21:49;42.50;;;25.20;;
79365;SDS011;68833;53.160;17.920;2024-03-02T14:24:16;40.90;;;23.90;;
79365;SDS011;68833;53.160;17.920;2024-03-02T14:26:42;83.80;;;45.20;;
79365;SDS011;68833;53.160;17.920;2024-03-02T14:29:09;60.20;;;34.90;;
79365;SDS011;68833;53.160;17.920;2024-03-02T14:31:36;47.60;;;27.90;;
79365;SDS011;68833;53.160;17.920;2024-03-02T14:34:03;58.10;;;30.90;;
79365;SDS011;68833;53.160;17.920;2024-03-02T14:36:30;55.20;;;29.80;;
79365;SDS011;68833;53.160;17.920;2024-03-02T14:38:57;51.20;;;29.60;;
79365;SDS011;68833;53.160;17.920;2024-03-02T14:41:24;53.70;;;28.90;;
79365;SDS011;68833;53.160;17.920;2024-03-02T14:43:51;50.20;;;29.40;;
79365;SDS011;68833;53.160;17.920;2024-03-02T14:46:18;45.70;;;27.50;;
79365;SDS011;68833;53.160;17.920;2024-03-02T14:48:45;51.90;;;29.20;;
79365;SDS011;68833;53.160;17.920;2024-03-02T14:51:13;53.10;;;28.60;;
79365;SDS011;68833;53.160;17.920;2024-03-02T14:53:40;47.20;;;26.90;;
79365;SDS011;68833;53.160;17.920;2024-03-02T14:56:07;51.70;;;25.30;;
79365;SDS011;68833;53.160;17.920;2024-03-02T14:58:35;51.70;;;29.50;;
79365;SDS011;68833;53.160;17.920;2024-03-02T15:01:04;56.50;;;30.30;;
79365;SDS011;68833;53.160;17.920;2024-03-02T15:03:35;54.40;;;30.40;;
79365;SDS011;68833;53.160;17.920;2024-03-02T15:06:02;45.30;;;25.90;;
79365;SDS011;68833;53.160;17.920;2024-03-02T15:08:30;56.40;;;31.30;;
79365;SDS011;68833;53.160;17.920;2024-03-02T15:10:57;51.00;;;27.80;;
79365;SDS011;68833;53.160;17.920;2024-03-02T15:13:26;48.20;;;27.70;;